createdAt,value
2022-09-07T00:01:09.482Z,61.36
2022-09-07T00:03:37.770Z,61.13
2022-09-07T00:06:08.037Z,61.05
2022-09-07T00:08:36.373Z,61.49
2022-09-07T00:11:07.300Z,61.96
2022-09-07T00:13:37.167Z,61.83
2022-09-07T00:16:13.302Z,61.71
2022-09-07T00:18:45.225Z,62.83
2022-09-07T00:21:16.892Z,62.59
2022-09-07T00:23:45.087Z,62.58
2022-09-07T00:26:18.535Z,63.36
2022-09-07T00:28:47.315Z,63.08
2022-09-07T00:31:18.526Z,63.49
2022-09-07T00:33:49.082Z,63.25
2022-09-07T00:36:18.334Z,63.88
2022-09-07T00:38:46.791Z,63.37
2022-09-07T00:41:16.036Z,63.13
2022-09-07T00:43:47.558Z,63.33
2022-09-07T00:46:21.575Z,64.28
2022-09-07T00:49:22.098Z,63.37
2022-09-07T00:51:57.971Z,63.34
2022-09-07T00:54:40.577Z,63.81
2022-09-07T00:57:09.020Z,63.76
2022-09-07T00:59:42.573Z,63.92
2022-09-07T01:02:12.386Z,64.47
2022-09-07T01:04:40.829Z,64.15
2022-09-07T01:07:09.076Z,63.44
2022-09-07T01:09:38.503Z,63.11
2022-09-07T01:12:06.765Z,63.21
2022-09-07T01:14:42.383Z,63.23
2022-09-07T01:17:17.467Z,65.25
2022-09-07T01:19:45.117Z,64.83
2022-09-07T01:22:40.757Z,63.95
2022-09-07T01:25:14.529Z,64.17
2022-09-07T01:27:52.315Z,64.37
2022-09-07T01:30:22.026Z,64.58
2022-09-07T01:33:07.913Z,64.74
2022-09-07T01:35:53.884Z,65.06
2022-09-07T01:38:28.463Z,65.43
2022-09-07T01:41:17.826Z,64.78
2022-09-07T01:44:02.113Z,64.36
2022-09-07T01:46:35.322Z,64.14
2022-09-07T01:49:28.337Z,64.60
2022-09-07T01:52:02.324Z,65.06
2022-09-07T01:55:03.363Z,65.16
2022-09-07T01:57:41.203Z,65.81
2022-09-07T02:00:12.852Z,64.85
2022-09-07T02:03:14.369Z,64.91
2022-09-07T02:05:51.683Z,65.26
2022-09-07T02:08:35.844Z,65.37
2022-09-07T02:11:18.269Z,65.34
2022-09-07T02:14:04.043Z,65.52
2022-09-07T02:16:34.927Z,65.65
2022-09-07T02:19:08.300Z,65.58
2022-09-07T02:21:41.465Z,66.29
2022-09-07T02:24:26.391Z,66.20
2022-09-07T02:26:56.055Z,69.30
2022-09-07T02:29:25.290Z,68.52
2022-09-07T02:31:55.699Z,68.75
2022-09-07T02:34:23.981Z,69.11
2022-09-07T02:36:53.794Z,70.06
2022-09-07T02:39:21.501Z,70.50
2022-09-07T02:41:49.125Z,72.08
2022-09-07T02:44:24.628Z,71.96
2022-09-07T02:47:14.569Z,71.75
2022-09-07T02:50:01.281Z,71.87
2022-09-07T02:52:47.037Z,72.97
2022-09-07T02:55:36.926Z,72.93
2022-09-07T02:58:28.239Z,73.40
2022-09-07T03:01:08.047Z,73.07
2022-09-07T03:04:03.624Z,73.49
2022-09-07T03:06:38.353Z,73.87
2022-09-07T03:09:11.493Z,74.04
2022-09-07T03:11:39.757Z,74.47
2022-09-07T03:14:20.817Z,73.79
2022-09-07T03:16:52.164Z,75.29
2022-09-07T03:19:20.087Z,74.63
2022-09-07T03:21:48.633Z,75.44
2022-09-07T03:24:16.398Z,75.47
2022-09-07T03:26:46.554Z,74.15
2022-09-07T03:29:15.740Z,74.12
2022-09-07T03:31:43.474Z,74.17
2022-09-07T03:34:11.691Z,76.08
2022-09-07T03:36:40.003Z,74.96
2022-09-07T03:39:08.338Z,76.07
2022-09-07T03:41:35.948Z,77.36
2022-09-07T03:44:05.445Z,77.60
2022-09-07T03:46:34.414Z,76.09
2022-09-07T03:49:02.226Z,76.66
2022-09-07T03:51:31.109Z,76.00
2022-09-07T03:54:00.456Z,77.08
2022-09-07T03:56:28.286Z,78.24
2022-09-07T03:58:56.433Z,77.11
2022-09-07T04:01:26.108Z,75.75
2022-09-07T04:04:01.782Z,75.65
2022-09-07T04:06:31.204Z,77.09
2022-09-07T04:09:07.784Z,76.84
2022-09-07T04:11:35.897Z,76.57
2022-09-07T04:14:04.151Z,78.01
2022-09-07T04:16:31.901Z,78.85
2022-09-07T04:19:00.207Z,78.20
2022-09-07T04:21:32.555Z,77.90
2022-09-07T04:24:00.794Z,79.72
2022-09-07T04:26:34.159Z,77.36
2022-09-07T04:29:02.997Z,77.11
2022-09-07T04:31:33.428Z,77.75
2022-09-07T04:34:01.812Z,76.72
2022-09-07T04:36:29.510Z,76.06
2022-09-07T04:39:00.443Z,75.70
2022-09-07T04:41:29.972Z,75.09
2022-09-07T04:44:00.419Z,75.15
2022-09-07T04:46:31.228Z,76.69
2022-09-07T04:49:01.289Z,77.15
2022-09-07T04:51:30.853Z,78.24
2022-09-07T04:54:00.750Z,76.60
2022-09-07T04:56:29.249Z,78.84
2022-09-07T04:58:57.159Z,77.42
2022-09-07T05:01:26.236Z,75.44
2022-09-07T05:03:54.411Z,75.30
2022-09-07T05:06:23.117Z,75.07
2022-09-07T05:08:52.748Z,76.30
2022-09-07T05:11:28.471Z,75.67
2022-09-07T05:14:01.275Z,76.45
2022-09-07T05:16:30.946Z,77.48
2022-09-07T05:19:01.736Z,76.70
2022-09-07T05:21:32.378Z,81.30
2022-09-07T05:24:01.203Z,79.91
2022-09-07T05:26:32.851Z,78.29
2022-09-07T05:31:54.921Z,77.31
2022-09-07T05:36:54.455Z,75.76
2022-09-07T05:39:22.173Z,74.01
2022-09-07T05:41:49.872Z,75.63
2022-09-07T05:47:05.819Z,73.82
2022-09-07T05:49:34.120Z,75.29
2022-09-07T05:52:01.777Z,74.21
2022-09-07T05:54:29.429Z,74.14
2022-09-07T05:56:57.409Z,73.05
2022-09-07T05:59:25.129Z,76.70
2022-09-07T06:01:53.005Z,73.51
2022-09-07T06:04:21.106Z,71.50
2022-09-07T06:07:17.642Z,71.08
2022-09-07T06:12:24.671Z,73.21
2022-09-07T06:14:52.592Z,72.86
2022-09-07T06:17:20.235Z,72.70
2022-09-07T06:19:48.012Z,71.60
2022-09-07T06:22:15.989Z,70.50
2022-09-07T06:24:43.700Z,69.29
2022-09-07T06:27:11.424Z,69.68
2022-09-07T06:29:39.462Z,69.09
2022-09-07T06:34:55.260Z,69.41
2022-09-07T06:37:22.945Z,68.34
2022-09-07T06:39:50.685Z,69.78
2022-09-07T06:42:18.645Z,67.79
2022-09-07T06:44:46.325Z,69.69
2022-09-07T06:47:14.011Z,68.67
2022-09-07T06:49:41.961Z,67.33
2022-09-07T06:52:09.691Z,67.61
2022-09-07T06:57:27.130Z,70.68
2022-09-07T06:59:55.602Z,67.79
2022-09-07T07:02:23.310Z,66.63
2022-09-07T07:04:51.336Z,65.44
2022-09-07T07:07:19.026Z,65.50
2022-09-07T07:09:46.799Z,66.58
2022-09-07T07:12:14.786Z,66.26
2022-09-07T07:14:45.007Z,63.54
2022-09-07T07:17:13.670Z,65.21
2022-09-07T07:19:41.784Z,64.82
2022-09-07T07:22:45.594Z,62.98
2022-09-07T07:24:57.409Z,60.54
2022-09-07T07:27:25.144Z,61.95
2022-09-07T07:29:53.896Z,61.88
2022-09-07T07:32:21.897Z,59.82
2022-09-07T07:34:49.569Z,59.61
2022-09-07T07:37:17.378Z,59.53
2022-09-07T07:42:34.046Z,59.08
2022-09-07T07:47:54.471Z,57.27
2022-09-07T07:50:30.947Z,57.13
2022-09-07T07:55:47.801Z,54.29
2022-09-07T07:58:15.532Z,55.63
2022-09-07T08:00:54.218Z,54.11
2022-09-07T08:03:24.757Z,54.71
2022-09-07T08:05:52.677Z,53.89
2022-09-07T08:08:21.097Z,55.98
2022-09-07T08:10:49.565Z,55.11
2022-09-07T08:13:17.897Z,54.58
2022-09-07T08:15:46.377Z,53.53
2022-09-07T08:18:16.373Z,52.42
2022-09-07T08:20:44.064Z,52.17
2022-09-07T08:23:11.955Z,52.00
2022-09-07T08:25:55.782Z,53.13
2022-09-07T08:28:24.680Z,54.01
2022-09-07T08:30:52.528Z,52.48
2022-09-07T08:33:20.571Z,51.93
2022-09-07T08:35:59.908Z,51.26
2022-09-07T08:38:30.565Z,51.07
2022-09-07T08:40:59.195Z,51.26
2022-09-07T08:43:38.084Z,50.86
2022-09-07T08:46:31.617Z,49.65
2022-09-07T08:49:03.220Z,50.43
2022-09-07T08:51:43.569Z,51.41
2022-09-07T08:54:13.816Z,50.32
2022-09-07T08:59:55.116Z,48.83
2022-09-07T09:02:27.210Z,48.30
2022-09-07T09:07:56.561Z,49.13
2022-09-07T09:10:35.972Z,51.63
2022-09-07T09:13:09.736Z,49.45
2022-09-07T09:15:52.375Z,48.56
2022-09-07T09:18:36.785Z,47.17
2022-09-07T09:21:07.991Z,47.79
2022-09-07T09:23:40.773Z,46.38
2022-09-07T09:26:11.549Z,47.62
2022-09-07T09:28:40.050Z,46.29
2022-09-07T09:31:16.988Z,46.02
2022-09-07T09:34:04.987Z,47.09
2022-09-07T09:36:42.025Z,47.21
2022-09-07T09:39:31.584Z,46.86
2022-09-07T09:42:25.406Z,46.16
2022-09-07T09:44:53.883Z,46.05
2022-09-07T09:47:31.281Z,46.19
2022-09-07T09:52:29.016Z,46.01
2022-09-07T09:53:06.268Z,47.51
2022-09-07T09:55:40.898Z,45.63
2022-09-07T10:01:36.081Z,46.34
2022-09-07T10:04:32.092Z,45.52
2022-09-07T10:07:20.053Z,44.69
2022-09-07T10:09:55.806Z,44.50
2022-09-07T10:12:52.665Z,43.74
2022-09-07T10:15:29.107Z,43.54
2022-09-07T10:17:58.358Z,43.94
2022-09-07T10:20:36.521Z,43.58
2022-09-07T10:23:06.678Z,43.77
2022-09-07T10:25:41.970Z,44.85
2022-09-07T10:28:15.640Z,45.09
2022-09-07T10:30:49.639Z,43.43
2022-09-07T10:33:40.607Z,42.99
2022-09-07T10:36:43.153Z,43.92
2022-09-07T10:39:18.574Z,43.97
2022-09-07T10:42:23.652Z,42.42
2022-09-07T10:45:09.911Z,42.60
2022-09-07T10:47:37.819Z,41.76
2022-09-07T10:50:32.401Z,41.33
2022-09-07T10:53:43.416Z,41.41
2022-09-07T10:56:25.907Z,42.30
2022-09-07T10:59:14.009Z,42.60
2022-09-07T11:01:53.856Z,42.66
2022-09-07T11:04:53.679Z,41.27
2022-09-07T11:07:28.728Z,41.30
2022-09-07T11:10:22.125Z,41.39
2022-09-07T11:12:51.987Z,42.60
2022-09-07T11:15:33.346Z,43.53
2022-09-07T11:18:12.973Z,42.09
2022-09-07T11:20:40.780Z,42.29
2022-09-07T11:23:29.171Z,42.13
2022-09-07T11:26:14.454Z,42.36
2022-09-07T11:32:24.737Z,42.34
2022-09-07T11:34:57.615Z,40.33
2022-09-07T11:37:41.756Z,40.66
2022-09-07T11:40:29.999Z,42.11
2022-09-07T11:43:13.041Z,42.07
2022-09-07T11:45:49.104Z,42.37
2022-09-07T11:48:30.477Z,43.43
2022-09-07T11:51:04.528Z,43.21
2022-09-07T11:53:43.138Z,41.76
2022-09-07T11:56:18.515Z,41.43
2022-09-07T11:59:04.004Z,41.85
2022-09-07T12:02:06.076Z,41.32
2022-09-07T12:05:01.291Z,40.36
2022-09-07T12:08:08.061Z,40.05
2022-09-07T12:10:46.504Z,40.98
2022-09-07T12:13:36.057Z,42.35
2022-09-07T12:16:06.865Z,41.78
2022-09-07T12:19:05.125Z,41.62
2022-09-07T12:21:45.736Z,41.25
2022-09-07T12:24:35.103Z,40.72
2022-09-07T12:27:22.302Z,40.68
2022-09-07T12:30:10.655Z,40.64
2022-09-07T12:32:55.830Z,42.17
2022-09-07T12:35:30.228Z,40.63
2022-09-07T12:37:59.831Z,40.84
2022-09-07T12:40:30.260Z,39.66
2022-09-07T12:43:13.255Z,40.59
2022-09-07T12:45:40.892Z,39.17
2022-09-07T12:48:17.954Z,39.68
2022-09-07T12:54:23.187Z,39.84
2022-09-07T13:00:11.814Z,39.02
2022-09-07T13:03:49.540Z,38.83
2022-09-07T13:07:01.810Z,37.97
2022-09-07T13:09:25.777Z,38.27
2022-09-07T13:11:53.891Z,38.73
2022-09-07T13:14:26.041Z,39.02
2022-09-07T13:17:31.367Z,39.59
2022-09-07T13:19:59.491Z,39.68
2022-09-07T13:22:30.261Z,39.84
2022-09-07T13:25:20.710Z,38.73
2022-09-07T13:27:58.477Z,38.69
2022-09-07T13:30:29.236Z,38.81
2022-09-07T13:33:25.215Z,38.14
2022-09-07T13:36:01.165Z,39.35
2022-09-07T13:38:30.963Z,39.71
2022-09-07T13:41:12.693Z,39.15
2022-09-07T13:43:45.846Z,38.23
2022-09-07T13:46:35.097Z,39.17
2022-09-07T13:49:28.412Z,38.47
2022-09-07T13:52:06.481Z,38.51
2022-09-07T13:54:50.924Z,38.88
2022-09-07T13:57:32.674Z,38.04
2022-09-07T14:00:00.860Z,38.42
2022-09-07T14:02:36.134Z,38.58
2022-09-07T14:05:06.590Z,38.21
2022-09-07T14:07:34.166Z,38.23
2022-09-07T14:10:04.810Z,38.21
2022-09-07T14:12:42.561Z,37.88
2022-09-07T14:15:14.530Z,37.87
2022-09-07T14:17:43.897Z,37.54
2022-09-07T14:20:16.615Z,37.84
2022-09-07T14:22:45.474Z,37.91
2022-09-07T14:25:18.785Z,38.29
2022-09-07T14:27:48.114Z,39.37
2022-09-07T14:30:36.446Z,38.82
2022-09-07T14:33:17.218Z,38.70
2022-09-07T14:35:44.996Z,39.45
2022-09-07T14:41:16.138Z,39.88
2022-09-07T14:43:57.933Z,38.54
2022-09-07T14:46:33.088Z,37.75
2022-09-07T14:49:22.140Z,38.38
2022-09-07T14:51:50.505Z,37.90
2022-09-07T14:54:31.334Z,38.83
2022-09-07T14:57:02.557Z,38.44
2022-09-07T14:59:43.033Z,38.07
2022-09-07T15:02:20.072Z,40.00
2022-09-07T15:05:08.843Z,41.93
2022-09-07T15:07:41.687Z,40.37
2022-09-07T15:10:23.708Z,41.56
2022-09-07T15:12:54.340Z,41.81
2022-09-07T15:15:37.806Z,41.72
2022-09-07T15:18:44.243Z,39.15
2022-09-07T15:21:12.219Z,40.64
2022-09-07T15:23:39.895Z,38.49
2022-09-07T15:27:02.048Z,38.86
2022-09-07T15:29:14.451Z,38.77
2022-09-07T15:31:49.770Z,39.55
2022-09-07T15:34:22.224Z,38.05
2022-09-07T15:36:52.229Z,36.54
2022-09-07T15:39:27.592Z,36.14
2022-09-07T15:41:56.745Z,37.33
2022-09-07T15:44:26.505Z,37.13
2022-09-07T15:49:50.067Z,37.96
2022-09-07T15:52:19.080Z,37.82
2022-09-07T15:54:46.736Z,37.92
2022-09-07T16:00:02.785Z,37.56
2022-09-07T16:05:30.990Z,39.09
2022-09-07T16:11:05.390Z,40.55
2022-09-07T16:13:33.488Z,41.84
2022-09-07T16:16:04.783Z,42.98
2022-09-07T16:18:34.024Z,42.68
2022-09-07T16:21:26.264Z,43.66
2022-09-07T16:23:54.510Z,42.15
2022-09-07T16:26:25.214Z,42.42
2022-09-07T16:28:53.858Z,42.85
2022-09-07T16:31:24.343Z,45.03
2022-09-07T16:33:53.231Z,44.39
2022-09-07T16:36:24.678Z,43.96
2022-09-07T16:38:57.089Z,44.04
2022-09-07T16:41:31.093Z,44.59
2022-09-07T16:43:59.458Z,45.02
2022-09-07T16:46:30.666Z,45.94
2022-09-07T16:48:58.341Z,46.35
2022-09-07T16:51:26.368Z,47.17
2022-09-07T16:53:56.241Z,47.54
2022-09-07T16:56:26.969Z,47.31
2022-09-07T16:58:57.689Z,47.67
2022-09-07T17:01:34.557Z,46.92
2022-09-07T17:04:06.809Z,47.82
2022-09-07T17:06:39.015Z,47.02
2022-09-07T17:09:07.525Z,47.09
2022-09-07T17:11:36.682Z,48.18
2022-09-07T17:14:06.676Z,48.19
2022-09-07T17:16:38.483Z,47.92
2022-09-07T17:21:57.615Z,46.04
2022-09-07T17:24:25.385Z,48.15
2022-09-07T17:26:52.905Z,49.13
2022-09-07T17:29:21.108Z,47.91
2022-09-07T17:34:36.684Z,48.60
2022-09-07T17:37:04.317Z,49.68
2022-09-07T17:39:32.074Z,50.41
2022-09-07T17:42:00.924Z,49.70
2022-09-07T17:44:33.231Z,49.07
2022-09-07T17:47:03.901Z,48.21
2022-09-07T17:49:31.511Z,48.04
2022-09-07T17:52:01.025Z,48.15
2022-09-07T17:54:30.035Z,48.05
2022-09-07T17:56:57.558Z,48.39
2022-09-07T18:02:13.943Z,48.90
2022-09-07T18:04:42.723Z,49.76
2022-09-07T18:07:10.355Z,50.37
2022-09-07T18:09:39.145Z,50.74
2022-09-07T18:12:07.301Z,50.99
2022-09-07T18:14:34.968Z,51.21
2022-09-07T18:17:05.379Z,51.85
2022-09-07T18:19:33.387Z,51.81
2022-09-07T18:22:01.447Z,52.42
2022-09-07T18:24:30.813Z,52.21
2022-09-07T18:27:01.738Z,52.46
2022-09-07T18:29:33.007Z,52.64
2022-09-07T18:32:08.272Z,52.57
2022-09-07T18:34:38.573Z,52.99
2022-09-07T18:37:07.065Z,53.07
2022-09-07T18:39:37.508Z,53.30
2022-09-07T18:42:05.382Z,53.33
2022-09-07T18:47:28.068Z,53.64
2022-09-07T18:49:57.119Z,53.34
2022-09-07T18:55:13.135Z,54.40
2022-09-07T18:57:40.831Z,55.49
2022-09-07T19:00:11.232Z,55.45
2022-09-07T19:02:41.979Z,56.21
2022-09-07T19:07:57.536Z,56.35
2022-09-07T19:10:25.192Z,56.80
2022-09-07T19:12:53.042Z,56.89
2022-09-07T19:15:21.061Z,57.83
2022-09-07T19:17:48.731Z,57.86
2022-09-07T19:20:18.718Z,57.94
2022-09-07T19:22:49.785Z,58.36
2022-09-07T19:25:19.341Z,58.36
2022-09-07T19:27:47.289Z,58.62
2022-09-07T19:30:17.362Z,59.20
2022-09-07T19:32:44.973Z,59.34
2022-09-07T19:35:12.855Z,59.08
2022-09-07T19:37:40.525Z,58.91
2022-09-07T19:40:11.983Z,59.03
2022-09-07T19:42:41.530Z,58.91
2022-09-07T19:45:09.626Z,59.19
2022-09-07T19:47:37.200Z,59.47
2022-09-07T19:50:05.977Z,59.16
2022-09-07T19:52:34.009Z,59.48
2022-09-07T19:55:03.897Z,59.60
2022-09-07T19:57:33.060Z,59.12
2022-09-07T20:00:01.395Z,59.38
2022-09-07T20:02:28.907Z,59.29
2022-09-07T20:04:56.768Z,59.56
2022-09-07T20:07:24.452Z,59.92
2022-09-07T20:09:53.122Z,60.25
2022-09-07T20:12:20.938Z,60.17
2022-09-07T20:14:48.634Z,60.49
2022-09-07T20:17:16.179Z,60.73
2022-09-07T20:19:45.487Z,61.56
2022-09-07T20:22:13.188Z,61.22
2022-09-07T20:24:40.875Z,61.87
2022-09-07T20:27:08.764Z,60.96
2022-09-07T20:29:36.519Z,61.12
2022-09-07T20:32:04.277Z,60.89
2022-09-07T20:34:32.904Z,61.14
2022-09-07T20:37:01.117Z,61.58
2022-09-07T20:39:28.714Z,61.02
2022-09-07T20:41:56.678Z,62.11
2022-09-07T20:44:24.282Z,62.02
2022-09-07T20:46:51.933Z,61.68
2022-09-07T20:49:19.812Z,61.02
2022-09-07T20:51:47.377Z,60.18
2022-09-07T20:54:15.067Z,59.85
2022-09-07T20:56:42.888Z,60.99
2022-09-07T20:59:12.136Z,61.59
2022-09-07T21:01:39.783Z,61.81
2022-09-07T21:04:07.783Z,61.08
2022-09-07T21:06:35.436Z,61.03
2022-09-07T21:09:03.509Z,60.26
2022-09-07T21:11:34.398Z,60.06
2022-09-07T21:14:06.388Z,60.46
2022-09-07T21:16:37.410Z,60.58
2022-09-07T21:19:07.339Z,60.83
2022-09-07T21:21:38.888Z,60.38
2022-09-07T21:24:15.223Z,61.39
2022-09-07T21:26:43.085Z,61.43
2022-09-07T21:29:17.146Z,61.10
2022-09-07T21:31:45.542Z,61.42
2022-09-07T21:34:13.759Z,60.77
2022-09-07T21:36:41.338Z,60.78
2022-09-07T21:39:13.724Z,60.88
2022-09-07T21:41:43.308Z,61.01
2022-09-07T21:44:13.494Z,62.10
2022-09-07T21:46:41.971Z,62.04
2022-09-07T21:49:09.701Z,62.70
2022-09-07T21:51:38.150Z,62.26
2022-09-07T21:54:06.161Z,61.46
2022-09-07T21:56:33.838Z,61.87
2022-09-07T21:59:02.621Z,62.35
2022-09-07T22:01:31.309Z,61.99
2022-09-07T22:04:02.401Z,61.64
2022-09-07T22:06:32.439Z,62.09
2022-09-07T22:09:01.357Z,61.79
2022-09-07T22:11:29.731Z,62.04
2022-09-07T22:14:00.301Z,62.88
2022-09-07T22:16:28.479Z,63.54
2022-09-07T22:18:56.329Z,63.06
2022-09-07T22:21:26.901Z,64.48
2022-09-07T22:23:57.956Z,62.51
2022-09-07T22:26:26.484Z,62.06
2022-09-07T22:28:54.747Z,62.21
2022-09-07T22:31:28.985Z,63.59
2022-09-07T22:33:58.481Z,63.58
2022-09-07T22:36:32.501Z,63.91
2022-09-07T22:39:03.298Z,63.81
2022-09-07T22:41:33.541Z,63.21
2022-09-07T22:44:01.978Z,63.44
2022-09-07T22:46:31.104Z,62.36
2022-09-07T22:48:59.460Z,62.62
2022-09-07T22:51:27.652Z,63.03
2022-09-07T22:53:55.997Z,63.12
2022-09-07T22:56:26.877Z,63.80
2022-09-07T22:59:00.158Z,63.81
2022-09-07T23:01:30.410Z,64.07
2022-09-07T23:03:59.218Z,64.49
2022-09-07T23:06:31.015Z,66.94
2022-09-07T23:09:00.851Z,65.63
2022-09-07T23:11:28.812Z,64.15
2022-09-07T23:13:58.598Z,63.30
2022-09-07T23:16:28.047Z,63.86
2022-09-07T23:18:57.978Z,64.93
2022-09-07T23:21:27.308Z,63.43
2022-09-07T23:23:57.530Z,63.43
2022-09-07T23:26:27.724Z,64.10
2022-09-07T23:29:00.845Z,65.02
2022-09-07T23:31:29.959Z,64.79
2022-09-07T23:33:58.363Z,64.96
2022-09-07T23:36:26.712Z,63.39
2022-09-07T23:38:56.276Z,64.35
2022-09-07T23:41:25.132Z,63.40
2022-09-07T23:43:54.074Z,63.88
2022-09-07T23:46:22.579Z,65.33
2022-09-07T23:48:50.838Z,64.55
2022-09-07T23:51:23.438Z,64.34
2022-09-07T23:53:53.039Z,63.29
2022-09-07T23:56:21.866Z,63.21
2022-09-07T23:58:49.486Z,63.64
